首页
METAR-TAF:

METAR-TAF

机场 :

Swift Current, 薩斯喀徹溫, 加拿大

纬度: 50-17N, 经度: 107-41W, 海拔: 818米

当前天气观测

该预报发布于52分钟前的14:00 UTC
风速2节,风向
温度 0°C
湿度 93%
气压 1025 hPa
能見度: 14.5公里
阴天层高于3000英尺

METAR: CYYN 151400Z AUTO 19002KT 9SM OVC030 M00/M01 A3026 RMK ICG SLP283

时间: 08:52 (14:52 UTC)

预报

该预报发布于1小时和18分钟前的13:34 UTC
预报有效从15日的 13点(UTC)到 15日的 24点(UTC)
风速3节,风向多变
能見度: 10公里
多云层高于2000英尺
多云层高于7000英尺
短暂存在
从 15日的 13点(UTC)到 15日的 14点(UTC)
能見度: 1.6公里
阴天层高于2000英尺
(小) 冻, 雨, 小雪, 轻雾
从 15日的 1400点(UTC)
风速3节,风向多变
能見度: 10公里
少量云层高于2000英尺
多云层高于5000英尺
短暂存在
从 15日的 14点(UTC)到 15日的 18点(UTC)
能見度: 6.4公里
多云层高于2000英尺
小雪, 轻雾
从 15日的 1800点(UTC)
风速10节,风向东北
能見度: 10公里
少量云层高于6000英尺
少量云层高于10000英尺

TAF: CYYN 151334Z 1513/1524 VRB03KT P6SM BKN020 BKN070 TEMPO 1513/1514 1SM -FZRA -SN BR OVC020 FM151400 VRB03KT P6SM FEW020 BKN050 TEMPO 1514/1518 4SM -SN BR BKN020 FM151800 05010KT P6SM FEW060 FEW100 RMK FCST BASED ON AUTO OBS. NXT FCST BY 151800Z

超过4000个机场的气象观测和天气预报(METAR&TAF报告)。

可查询的气象台以黄色和红色小点在地图上表示。

将鼠标移到小点上方,可查看气象台名称。

然后点击查看天气观测和预报。

如需切换地图:点击带黑十字的绿色按钮放大地图;点击带横线的绿色按钮缩小地图;或者点击绿色箭头查看邻近地区的地图。


METAR-TAF: